sensor_id;sensor_type;location;lat;lon;timestamp;P1;durP1;ratioP1;P2;durP2;ratioP2
42840;SDS011;28491;46.898;7.660;2023-02-27T00:00:38;3.65;;;3.00;;
42840;SDS011;28491;46.898;7.660;2023-02-27T00:03:04;4.75;;;3.78;;
42840;SDS011;28491;46.898;7.660;2023-02-27T00:05:29;4.38;;;3.38;;
42840;SDS011;28491;46.898;7.660;2023-02-27T00:07:55;3.72;;;3.13;;
42840;SDS011;28491;46.898;7.660;2023-02-27T00:10:21;5.75;;;3.50;;
42840;SDS011;28491;46.898;7.660;2023-02-27T00:12:46;6.20;;;3.60;;
42840;SDS011;28491;46.898;7.660;2023-02-27T00:15:15;5.57;;;3.63;;
42840;SDS011;28491;46.898;7.660;2023-02-27T00:17:42;5.38;;;3.55;;
42840;SDS011;28491;46.898;7.660;2023-02-27T00:20:10;8.00;;;3.50;;
42840;SDS011;28491;46.898;7.660;2023-02-27T00:22:37;5.82;;;3.60;;
42840;SDS011;28491;46.898;7.660;2023-02-27T00:25:04;7.32;;;3.30;;
42840;SDS011;28491;46.898;7.660;2023-02-27T00:27:31;6.38;;;3.67;;
42840;SDS011;28491;46.898;7.660;2023-02-27T00:29:57;8.95;;;3.45;;
42840;SDS011;28491;46.898;7.660;2023-02-27T00:32:23;4.18;;;3.40;;
42840;SDS011;28491;46.898;7.660;2023-02-27T00:34:49;6.13;;;3.13;;
42840;SDS011;28491;46.898;7.660;2023-02-27T00:37:14;4.22;;;3.17;;
42840;SDS011;28491;46.898;7.660;2023-02-27T00:39:40;4.72;;;3.25;;
42840;SDS011;28491;46.898;7.660;2023-02-27T00:42:06;4.20;;;3.00;;
42840;SDS011;28491;46.898;7.660;2023-02-27T00:44:31;5.25;;;3.45;;
42840;SDS011;28491;46.898;7.660;2023-02-27T00:46:57;4.22;;;3.42;;
42840;SDS011;28491;46.898;7.660;2023-02-27T00:49:23;4.40;;;3.60;;
42840;SDS011;28491;46.898;7.660;2023-02-27T00:51:50;4.05;;;3.20;;
42840;SDS011;28491;46.898;7.660;2023-02-27T00:54:16;5.65;;;3.22;;
42840;SDS011;28491;46.898;7.660;2023-02-27T00:56:42;4.05;;;3.35;;
42840;SDS011;28491;46.898;7.660;2023-02-27T00:59:08;4.20;;;3.63;;
42840;SDS011;28491;46.898;7.660;2023-02-27T01:01:33;3.92;;;3.13;;
42840;SDS011;28491;46.898;7.660;2023-02-27T01:03:59;4.03;;;2.70;;
42840;SDS011;28491;46.898;7.660;2023-02-27T01:06:25;3.50;;;2.97;;
42840;SDS011;28491;46.898;7.660;2023-02-27T01:08:50;4.25;;;3.13;;
42840;SDS011;28491;46.898;7.660;2023-02-27T01:11:16;5.07;;;2.88;;
42840;SDS011;28491;46.898;7.660;2023-02-27T01:13:42;4.93;;;3.42;;
42840;SDS011;28491;46.898;7.660;2023-02-27T01:16:10;4.85;;;3.42;;
42840;SDS011;28491;46.898;7.660;2023-02-27T01:18:36;3.97;;;3.40;;
42840;SDS011;28491;46.898;7.660;2023-02-27T01:21:02;4.40;;;3.10;;
42840;SDS011;28491;46.898;7.660;2023-02-27T01:23:27;5.00;;;3.20;;
42840;SDS011;28491;46.898;7.660;2023-02-27T01:25:54;4.32;;;3.17;;
42840;SDS011;28491;46.898;7.660;2023-02-27T01:28:19;4.88;;;3.83;;
42840;SDS011;28491;46.898;7.660;2023-02-27T01:30:45;3.88;;;2.75;;
42840;SDS011;28491;46.898;7.660;2023-02-27T01:33:11;5.20;;;3.55;;
42840;SDS011;28491;46.898;7.660;2023-02-27T01:35:36;6.00;;;3.50;;
42840;SDS011;28491;46.898;7.660;2023-02-27T01:38:02;4.55;;;2.97;;
42840;SDS011;28491;46.898;7.660;2023-02-27T01:40:27;3.67;;;3.00;;
42840;SDS011;28491;46.898;7.660;2023-02-27T01:42:53;4.65;;;3.22;;
42840;SDS011;28491;46.898;7.660;2023-02-27T01:45:34;7.35;;;3.25;;
42840;SDS011;28491;46.898;7.660;2023-02-27T01:50:32;4.30;;;2.97;;
42840;SDS011;28491;46.898;7.660;2023-02-27T01:52:59;4.80;;;3.08;;
42840;SDS011;28491;46.898;7.660;2023-02-27T01:55:27;5.35;;;3.45;;
42840;SDS011;28491;46.898;7.660;2023-02-27T01:57:55;6.70;;;4.30;;
42840;SDS011;28491;46.898;7.660;2023-02-27T02:00:21;4.97;;;4.00;;
42840;SDS011;28491;46.898;7.660;2023-02-27T02:02:59;6.05;;;3.60;;
42840;SDS011;28491;46.898;7.660;2023-02-27T02:05:30;5.38;;;3.70;;
42840;SDS011;28491;46.898;7.660;2023-02-27T02:07:57;5.60;;;3.88;;
42840;SDS011;28491;46.898;7.660;2023-02-27T02:10:23;5.80;;;3.97;;
42840;SDS011;28491;46.898;7.660;2023-02-27T02:12:49;3.47;;;3.10;;
42840;SDS011;28491;46.898;7.660;2023-02-27T02:15:15;4.80;;;2.90;;
42840;SDS011;28491;46.898;7.660;2023-02-27T02:23:35;4.28;;;3.03;;
42840;SDS011;28491;46.898;7.660;2023-02-27T02:29:09;4.35;;;3.65;;
42840;SDS011;28491;46.898;7.660;2023-02-27T02:40:23;4.75;;;3.00;;
42840;SDS011;28491;46.898;7.660;2023-02-27T02:46:01;4.55;;;2.80;;
42840;SDS011;28491;46.898;7.660;2023-02-27T02:48:55;5.35;;;3.72;;
42840;SDS011;28491;46.898;7.660;2023-02-27T02:51:40;5.38;;;3.53;;
42840;SDS011;28491;46.898;7.660;2023-02-27T02:54:24;4.28;;;3.03;;
42840;SDS011;28491;46.898;7.660;2023-02-27T02:56:59;6.47;;;3.47;;
42840;SDS011;28491;46.898;7.660;2023-02-27T02:59:31;4.47;;;3.42;;
42840;SDS011;28491;46.898;7.660;2023-02-27T03:02:07;5.00;;;3.22;;
42840;SDS011;28491;46.898;7.660;2023-02-27T03:04:39;3.88;;;2.63;;
42840;SDS011;28491;46.898;7.660;2023-02-27T03:07:21;5.07;;;2.78;;
42840;SDS011;28491;46.898;7.660;2023-02-27T03:10:06;4.43;;;2.80;;
42840;SDS011;28491;46.898;7.660;2023-02-27T03:12:40;5.38;;;3.25;;
42840;SDS011;28491;46.898;7.660;2023-02-27T03:15:29;4.40;;;3.30;;
42840;SDS011;28491;46.898;7.660;2023-02-27T03:18:03;4.55;;;2.90;;
42840;SDS011;28491;46.898;7.660;2023-02-27T03:20:36;4.50;;;2.97;;
42840;SDS011;28491;46.898;7.660;2023-02-27T03:23:07;5.13;;;3.15;;
42840;SDS011;28491;46.898;7.660;2023-02-27T03:25:37;3.63;;;2.80;;
42840;SDS011;28491;46.898;7.660;2023-02-27T03:28:05;4.78;;;3.33;;
42840;SDS011;28491;46.898;7.660;2023-02-27T03:30:44;4.35;;;3.15;;
42840;SDS011;28491;46.898;7.660;2023-02-27T03:36:04;4.28;;;2.78;;
42840;SDS011;28491;46.898;7.660;2023-02-27T03:38:34;9.00;;;3.20;;
42840;SDS011;28491;46.898;7.660;2023-02-27T03:41:22;4.03;;;2.72;;
42840;SDS011;28491;46.898;7.660;2023-02-27T03:44:03;3.38;;;2.70;;
42840;SDS011;28491;46.898;7.660;2023-02-27T03:46:32;5.97;;;3.03;;
42840;SDS011;28491;46.898;7.660;2023-02-27T03:48:59;4.45;;;2.90;;
42840;SDS011;28491;46.898;7.660;2023-02-27T03:51:25;6.90;;;3.38;;
42840;SDS011;28491;46.898;7.660;2023-02-27T03:53:56;22.50;;;3.83;;
42840;SDS011;28491;46.898;7.660;2023-02-27T03:56:28;5.18;;;2.90;;
42840;SDS011;28491;46.898;7.660;2023-02-27T03:59:02;3.67;;;2.95;;
42840;SDS011;28491;46.898;7.660;2023-02-27T04:01:28;3.30;;;2.13;;
42840;SDS011;28491;46.898;7.660;2023-02-27T04:03:56;5.03;;;3.70;;
42840;SDS011;28491;46.898;7.660;2023-02-27T04:06:25;4.53;;;3.13;;
42840;SDS011;28491;46.898;7.660;2023-02-27T04:09:21;3.60;;;3.03;;
42840;SDS011;28491;46.898;7.660;2023-02-27T04:17:24;5.63;;;3.33;;
42840;SDS011;28491;46.898;7.660;2023-02-27T04:22:50;5.03;;;3.65;;
42840;SDS011;28491;46.898;7.660;2023-02-27T04:25:36;6.05;;;4.03;;
42840;SDS011;28491;46.898;7.660;2023-02-27T04:28:27;4.60;;;3.53;;
42840;SDS011;28491;46.898;7.660;2023-02-27T04:31:21;4.25;;;2.97;;
42840;SDS011;28491;46.898;7.660;2023-02-27T04:33:55;4.97;;;3.45;;
42840;SDS011;28491;46.898;7.660;2023-02-27T04:36:27;5.05;;;3.60;;
42840;SDS011;28491;46.898;7.660;2023-02-27T04:41:39;6.10;;;3.72;;
42840;SDS011;28491;46.898;7.660;2023-02-27T04:44:11;5.00;;;3.35;;
42840;SDS011;28491;46.898;7.660;2023-02-27T04:46:38;4.78;;;3.17;;
42840;SDS011;28491;46.898;7.660;2023-02-27T04:49:08;6.53;;;3.80;;
42840;SDS011;28491;46.898;7.660;2023-02-27T04:52:01;4.40;;;3.10;;
42840;SDS011;28491;46.898;7.660;2023-02-27T04:54:32;5.72;;;4.35;;
42840;SDS011;28491;46.898;7.660;2023-02-27T04:57:05;3.50;;;2.95;;
42840;SDS011;28491;46.898;7.660;2023-02-27T04:59:38;5.05;;;3.03;;
42840;SDS011;28491;46.898;7.660;2023-02-27T05:02:11;6.00;;;3.92;;
42840;SDS011;28491;46.898;7.660;2023-02-27T05:04:42;4.03;;;2.92;;
42840;SDS011;28491;46.898;7.660;2023-02-27T05:07:10;4.55;;;3.28;;
42840;SDS011;28491;46.898;7.660;2023-02-27T05:09:45;5.32;;;3.28;;
42840;SDS011;28491;46.898;7.660;2023-02-27T05:15:25;4.82;;;3.50;;
42840;SDS011;28491;46.898;7.660;2023-02-27T05:20:30;5.55;;;3.83;;
42840;SDS011;28491;46.898;7.660;2023-02-27T05:26:00;4.10;;;3.40;;
42840;SDS011;28491;46.898;7.660;2023-02-27T05:28:37;5.57;;;3.17;;
42840;SDS011;28491;46.898;7.660;2023-02-27T05:31:14;4.25;;;2.90;;
42840;SDS011;28491;46.898;7.660;2023-02-27T05:34:03;7.22;;;3.53;;
42840;SDS011;28491;46.898;7.660;2023-02-27T05:36:35;7.55;;;5.03;;
42840;SDS011;28491;46.898;7.660;2023-02-27T05:39:04;9.57;;;5.75;;
42840;SDS011;28491;46.898;7.660;2023-02-27T05:41:41;6.07;;;3.95;;
42840;SDS011;28491;46.898;7.660;2023-02-27T05:44:14;5.72;;;3.47;;
42840;SDS011;28491;46.898;7.660;2023-02-27T05:46:48;5.13;;;3.33;;
42840;SDS011;28491;46.898;7.660;2023-02-27T05:49:22;5.85;;;3.40;;
42840;SDS011;28491;46.898;7.660;2023-02-27T05:51:54;8.20;;;5.10;;
42840;SDS011;28491;46.898;7.660;2023-02-27T05:54:28;7.17;;;4.57;;
42840;SDS011;28491;46.898;7.660;2023-02-27T05:57:00;4.25;;;3.22;;
42840;SDS011;28491;46.898;7.660;2023-02-27T05:59:37;6.22;;;3.78;;
42840;SDS011;28491;46.898;7.660;2023-02-27T06:02:07;5.97;;;4.07;;
42840;SDS011;28491;46.898;7.660;2023-02-27T06:04:34;6.75;;;3.83;;
42840;SDS011;28491;46.898;7.660;2023-02-27T06:07:00;5.47;;;4.07;;
42840;SDS011;28491;46.898;7.660;2023-02-27T06:09:26;4.88;;;3.80;;
42840;SDS011;28491;46.898;7.660;2023-02-27T06:11:51;5.85;;;3.60;;
42840;SDS011;28491;46.898;7.660;2023-02-27T06:14:17;5.40;;;3.92;;
42840;SDS011;28491;46.898;7.660;2023-02-27T06:16:42;5.43;;;3.25;;
42840;SDS011;28491;46.898;7.660;2023-02-27T06:19:08;8.45;;;3.65;;
42840;SDS011;28491;46.898;7.660;2023-02-27T06:21:33;4.72;;;3.30;;
42840;SDS011;28491;46.898;7.660;2023-02-27T06:23:59;5.50;;;3.75;;
42840;SDS011;28491;46.898;7.660;2023-02-27T06:26:24;8.10;;;3.78;;
42840;SDS011;28491;46.898;7.660;2023-02-27T06:28:50;5.40;;;3.30;;
42840;SDS011;28491;46.898;7.660;2023-02-27T06:31:15;4.30;;;3.28;;
42840;SDS011;28491;46.898;7.660;2023-02-27T06:33:41;15.23;;;4.20;;
42840;SDS011;28491;46.898;7.660;2023-02-27T06:36:07;4.25;;;3.22;;
42840;SDS011;28491;46.898;7.660;2023-02-27T06:38:32;5.25;;;3.67;;
42840;SDS011;28491;46.898;7.660;2023-02-27T06:40:58;4.75;;;3.25;;
42840;SDS011;28491;46.898;7.660;2023-02-27T06:43:23;4.65;;;3.22;;
42840;SDS011;28491;46.898;7.660;2023-02-27T06:45:52;4.47;;;3.38;;
42840;SDS011;28491;46.898;7.660;2023-02-27T06:48:18;5.95;;;4.15;;
42840;SDS011;28491;46.898;7.660;2023-02-27T06:50:43;5.20;;;3.72;;
42840;SDS011;28491;46.898;7.660;2023-02-27T06:53:09;5.25;;;3.30;;
42840;SDS011;28491;46.898;7.660;2023-02-27T06:55:34;4.45;;;3.08;;
42840;SDS011;28491;46.898;7.660;2023-02-27T06:58:00;5.30;;;3.38;;
42840;SDS011;28491;46.898;7.660;2023-02-27T07:00:25;5.05;;;3.60;;
42840;SDS011;28491;46.898;7.660;2023-02-27T07:02:51;4.38;;;3.70;;
42840;SDS011;28491;46.898;7.660;2023-02-27T07:05:16;6.68;;;3.72;;
42840;SDS011;28491;46.898;7.660;2023-02-27T07:07:42;6.00;;;4.03;;
42840;SDS011;28491;46.898;7.660;2023-02-27T07:10:10;4.65;;;3.22;;
42840;SDS011;28491;46.898;7.660;2023-02-27T07:12:38;4.32;;;3.67;;
42840;SDS011;28491;46.898;7.660;2023-02-27T07:15:04;6.20;;;4.47;;
42840;SDS011;28491;46.898;7.660;2023-02-27T07:17:30;4.28;;;3.30;;
42840;SDS011;28491;46.898;7.660;2023-02-27T07:19:56;5.35;;;3.58;;
42840;SDS011;28491;46.898;7.660;2023-02-27T07:22:21;12.50;;;4.78;;
42840;SDS011;28491;46.898;7.660;2023-02-27T07:24:47;5.25;;;3.55;;
42840;SDS011;28491;46.898;7.660;2023-02-27T07:27:12;4.70;;;3.08;;
42840;SDS011;28491;46.898;7.660;2023-02-27T07:29:38;4.90;;;3.75;;
42840;SDS011;28491;46.898;7.660;2023-02-27T07:32:03;4.47;;;3.75;;
42840;SDS011;28491;46.898;7.660;2023-02-27T07:34:29;5.75;;;3.28;;
42840;SDS011;28491;46.898;7.660;2023-02-27T07:36:55;5.32;;;3.63;;
42840;SDS011;28491;46.898;7.660;2023-02-27T07:39:20;5.82;;;4.00;;
42840;SDS011;28491;46.898;7.660;2023-02-27T07:41:46;4.45;;;3.42;;
42840;SDS011;28491;46.898;7.660;2023-02-27T07:44:11;5.85;;;4.03;;
42840;SDS011;28491;46.898;7.660;2023-02-27T07:46:37;4.53;;;3.38;;
42840;SDS011;28491;46.898;7.660;2023-02-27T07:49:03;4.20;;;3.50;;
42840;SDS011;28491;46.898;7.660;2023-02-27T07:51:28;5.88;;;3.67;;
42840;SDS011;28491;46.898;7.660;2023-02-27T07:53:57;6.13;;;4.38;;
42840;SDS011;28491;46.898;7.660;2023-02-27T07:56:23;3.70;;;2.80;;
42840;SDS011;28491;46.898;7.660;2023-02-27T07:58:49;4.88;;;3.40;;
42840;SDS011;28491;46.898;7.660;2023-02-27T08:01:15;5.47;;;3.88;;
42840;SDS011;28491;46.898;7.660;2023-02-27T08:03:40;5.13;;;3.72;;
42840;SDS011;28491;46.898;7.660;2023-02-27T08:06:06;6.60;;;3.67;;
42840;SDS011;28491;46.898;7.660;2023-02-27T08:08:31;5.18;;;3.50;;
42840;SDS011;28491;46.898;7.660;2023-02-27T08:10:57;5.68;;;3.47;;
42840;SDS011;28491;46.898;7.660;2023-02-27T08:13:23;5.28;;;3.53;;
42840;SDS011;28491;46.898;7.660;2023-02-27T08:15:48;5.53;;;3.63;;
42840;SDS011;28491;46.898;7.660;2023-02-27T08:18:14;5.38;;;3.67;;
42840;SDS011;28491;46.898;7.660;2023-02-27T08:20:40;5.32;;;3.28;;
42840;SDS011;28491;46.898;7.660;2023-02-27T08:23:05;6.10;;;4.20;;
42840;SDS011;28491;46.898;7.660;2023-02-27T08:25:31;5.38;;;3.83;;
42840;SDS011;28491;46.898;7.660;2023-02-27T08:27:56;4.47;;;3.47;;
42840;SDS011;28491;46.898;7.660;2023-02-27T08:30:22;4.82;;;3.95;;
42840;SDS011;28491;46.898;7.660;2023-02-27T08:32:48;4.93;;;3.75;;
42840;SDS011;28491;46.898;7.660;2023-02-27T08:35:13;4.90;;;3.97;;
42840;SDS011;28491;46.898;7.660;2023-02-27T08:37:39;10.55;;;4.20;;
42840;SDS011;28491;46.898;7.660;2023-02-27T08:40:04;5.65;;;4.03;;
42840;SDS011;28491;46.898;7.660;2023-02-27T08:42:31;4.75;;;3.95;;
42840;SDS011;28491;46.898;7.660;2023-02-27T08:44:57;5.85;;;4.22;;
42840;SDS011;28491;46.898;7.660;2023-02-27T08:47:23;4.53;;;3.65;;
42840;SDS011;28491;46.898;7.660;2023-02-27T08:49:49;4.35;;;3.28;;
42840;SDS011;28491;46.898;7.660;2023-02-27T08:52:14;4.88;;;3.83;;
42840;SDS011;28491;46.898;7.660;2023-02-27T08:54:40;5.32;;;3.67;;
42840;SDS011;28491;46.898;7.660;2023-02-27T08:57:05;5.97;;;3.92;;
42840;SDS011;28491;46.898;7.660;2023-02-27T08:59:31;4.65;;;3.55;;
42840;SDS011;28491;46.898;7.660;2023-02-27T09:01:57;7.72;;;4.38;;
42840;SDS011;28491;46.898;7.660;2023-02-27T09:04:23;5.47;;;4.03;;
42840;SDS011;28491;46.898;7.660;2023-02-27T09:06:48;4.65;;;3.35;;
42840;SDS011;28491;46.898;7.660;2023-02-27T09:09:14;4.97;;;3.53;;
42840;SDS011;28491;46.898;7.660;2023-02-27T09:11:39;7.97;;;4.20;;
42840;SDS011;28491;46.898;7.660;2023-02-27T09:14:05;6.75;;;4.70;;
42840;SDS011;28491;46.898;7.660;2023-02-27T09:16:31;5.63;;;4.50;;
42840;SDS011;28491;46.898;7.660;2023-02-27T09:18:56;5.47;;;4.20;;
42840;SDS011;28491;46.898;7.660;2023-02-27T09:21:22;4.55;;;3.53;;
42840;SDS011;28491;46.898;7.660;2023-02-27T09:23:48;6.88;;;4.00;;
42840;SDS011;28491;46.898;7.660;2023-02-27T09:26:14;6.22;;;3.67;;
42840;SDS011;28491;46.898;7.660;2023-02-27T09:28:41;6.65;;;4.55;;
42840;SDS011;28491;46.898;7.660;2023-02-27T09:31:07;7.15;;;3.92;;
42840;SDS011;28491;46.898;7.660;2023-02-27T09:33:33;5.93;;;4.20;;
42840;SDS011;28491;46.898;7.660;2023-02-27T09:36:01;5.20;;;4.05;;
42840;SDS011;28491;46.898;7.660;2023-02-27T09:38:27;5.85;;;4.25;;
42840;SDS011;28491;46.898;7.660;2023-02-27T09:40:52;6.75;;;3.83;;
42840;SDS011;28491;46.898;7.660;2023-02-27T09:43:22;8.52;;;4.40;;
42840;SDS011;28491;46.898;7.660;2023-02-27T09:45:55;6.07;;;4.10;;
42840;SDS011;28491;46.898;7.660;2023-02-27T09:48:29;5.80;;;4.15;;
42840;SDS011;28491;46.898;7.660;2023-02-27T09:51:09;5.63;;;3.70;;
42840;SDS011;28491;46.898;7.660;2023-02-27T09:53:39;5.82;;;3.97;;
42840;SDS011;28491;46.898;7.660;2023-02-27T09:56:08;9.38;;;5.20;;
42840;SDS011;28491;46.898;7.660;2023-02-27T10:17:59;8.50;;;4.97;;
42840;SDS011;28491;46.898;7.660;2023-02-27T10:20:42;8.77;;;4.72;;
42840;SDS011;28491;46.898;7.660;2023-02-27T10:23:16;5.72;;;4.55;;
42840;SDS011;28491;46.898;7.660;2023-02-27T10:25:45;4.32;;;3.47;;
42840;SDS011;28491;46.898;7.660;2023-02-27T10:28:18;5.72;;;3.88;;
42840;SDS011;28491;46.898;7.660;2023-02-27T10:30:49;9.80;;;4.20;;
42840;SDS011;28491;46.898;7.660;2023-02-27T10:33:25;7.00;;;4.03;;
42840;SDS011;28491;46.898;7.660;2023-02-27T10:35:56;5.22;;;3.60;;
42840;SDS011;28491;46.898;7.660;2023-02-27T10:38:27;6.07;;;4.20;;
42840;SDS011;28491;46.898;7.660;2023-02-27T10:40:58;11.27;;;4.28;;
42840;SDS011;28491;46.898;7.660;2023-02-27T10:43:25;6.18;;;3.60;;
42840;SDS011;28491;46.898;7.660;2023-02-27T10:45:51;8.23;;;3.95;;
42840;SDS011;28491;46.898;7.660;2023-02-27T10:48:17;5.03;;;3.78;;
42840;SDS011;28491;46.898;7.660;2023-02-27T10:50:44;7.28;;;4.35;;
42840;SDS011;28491;46.898;7.660;2023-02-27T10:53:21;8.10;;;4.17;;
42840;SDS011;28491;46.898;7.660;2023-02-27T10:56:02;6.13;;;3.90;;
42840;SDS011;28491;46.898;7.660;2023-02-27T10:58:31;7.40;;;3.80;;
42840;SDS011;28491;46.898;7.660;2023-02-27T11:01:00;6.93;;;4.80;;
42840;SDS011;28491;46.898;7.660;2023-02-27T11:03:38;5.90;;;4.25;;
42840;SDS011;28491;46.898;7.660;2023-02-27T11:06:12;7.07;;;3.90;;
42840;SDS011;28491;46.898;7.660;2023-02-27T11:09:09;5.32;;;3.80;;
42840;SDS011;28491;46.898;7.660;2023-02-27T11:11:41;5.85;;;4.32;;
42840;SDS011;28491;46.898;7.660;2023-02-27T11:14:14;5.65;;;3.47;;
42840;SDS011;28491;46.898;7.660;2023-02-27T11:17:19;5.82;;;4.38;;
42840;SDS011;28491;46.898;7.660;2023-02-27T11:19:44;4.68;;;3.40;;
42840;SDS011;28491;46.898;7.660;2023-02-27T11:22:15;4.90;;;3.60;;
42840;SDS011;28491;46.898;7.660;2023-02-27T11:24:44;5.07;;;3.88;;
42840;SDS011;28491;46.898;7.660;2023-02-27T11:27:24;6.13;;;3.90;;
42840;SDS011;28491;46.898;7.660;2023-02-27T11:30:00;6.68;;;4.78;;
42840;SDS011;28491;46.898;7.660;2023-02-27T11:38:03;5.70;;;4.30;;
42840;SDS011;28491;46.898;7.660;2023-02-27T11:40:33;6.35;;;4.40;;
42840;SDS011;28491;46.898;7.660;2023-02-27T11:43:04;6.28;;;4.80;;
42840;SDS011;28491;46.898;7.660;2023-02-27T11:45:40;6.85;;;4.85;;
42840;SDS011;28491;46.898;7.660;2023-02-27T11:48:18;7.90;;;5.30;;
42840;SDS011;28491;46.898;7.660;2023-02-27T11:53:54;5.93;;;4.70;;
42840;SDS011;28491;46.898;7.660;2023-02-27T11:59:31;5.53;;;3.97;;
42840;SDS011;28491;46.898;7.660;2023-02-27T12:04:58;6.22;;;4.63;;
42840;SDS011;28491;46.898;7.660;2023-02-27T12:07:45;6.60;;;4.53;;
42840;SDS011;28491;46.898;7.660;2023-02-27T12:10:18;6.15;;;4.40;;
42840;SDS011;28491;46.898;7.660;2023-02-27T12:15:34;7.95;;;5.00;;
42840;SDS011;28491;46.898;7.660;2023-02-27T12:23:27;5.38;;;4.35;;
42840;SDS011;28491;46.898;7.660;2023-02-27T12:26:38;5.97;;;4.50;;
42840;SDS011;28491;46.898;7.660;2023-02-27T12:32:18;5.63;;;4.03;;
42840;SDS011;28491;46.898;7.660;2023-02-27T12:34:57;5.20;;;4.03;;
42840;SDS011;28491;46.898;7.660;2023-02-27T12:37:26;6.53;;;4.90;;
42840;SDS011;28491;46.898;7.660;2023-02-27T12:39:54;7.47;;;4.72;;
42840;SDS011;28491;46.898;7.660;2023-02-27T12:42:32;8.07;;;4.68;;
42840;SDS011;28491;46.898;7.660;2023-02-27T12:45:23;6.03;;;4.20;;
42840;SDS011;28491;46.898;7.660;2023-02-27T12:51:35;6.72;;;5.05;;
42840;SDS011;28491;46.898;7.660;2023-02-27T12:54:18;6.93;;;3.97;;
42840;SDS011;28491;46.898;7.660;2023-02-27T12:57:28;6.22;;;4.88;;
42840;SDS011;28491;46.898;7.660;2023-02-27T12:59:56;8.52;;;4.85;;
42840;SDS011;28491;46.898;7.660;2023-02-27T13:02:33;10.30;;;5.68;;
42840;SDS011;28491;46.898;7.660;2023-02-27T13:05:11;8.85;;;5.22;;
42840;SDS011;28491;46.898;7.660;2023-02-27T13:11:04;7.05;;;4.72;;
42840;SDS011;28491;46.898;7.660;2023-02-27T13:13:20;6.28;;;5.43;;
42840;SDS011;28491;46.898;7.660;2023-02-27T13:15:55;6.32;;;5.07;;
42840;SDS011;28491;46.898;7.660;2023-02-27T13:18:30;6.80;;;5.13;;
42840;SDS011;28491;46.898;7.660;2023-02-27T13:26:52;5.80;;;4.40;;
42840;SDS011;28491;46.898;7.660;2023-02-27T13:29:28;10.75;;;5.97;;
42840;SDS011;28491;46.898;7.660;2023-02-27T13:32:14;7.80;;;4.97;;
42840;SDS011;28491;46.898;7.660;2023-02-27T13:35:16;5.03;;;3.97;;
42840;SDS011;28491;46.898;7.660;2023-02-27T13:38:01;9.48;;;5.97;;
42840;SDS011;28491;46.898;7.660;2023-02-27T13:40:47;5.22;;;4.53;;
42840;SDS011;28491;46.898;7.660;2023-02-27T13:43:26;7.15;;;4.75;;
42840;SDS011;28491;46.898;7.660;2023-02-27T13:45:53;6.55;;;4.95;;
42840;SDS011;28491;46.898;7.660;2023-02-27T13:50:58;8.20;;;5.38;;
42840;SDS011;28491;46.898;7.660;2023-02-27T13:53:25;7.32;;;5.03;;
42840;SDS011;28491;46.898;7.660;2023-02-27T13:55:52;8.48;;;5.55;;
42840;SDS011;28491;46.898;7.660;2023-02-27T13:58:22;7.10;;;4.72;;
42840;SDS011;28491;46.898;7.660;2023-02-27T14:00:55;9.80;;;5.63;;
42840;SDS011;28491;46.898;7.660;2023-02-27T14:03:24;6.95;;;4.90;;
42840;SDS011;28491;46.898;7.660;2023-02-27T14:05:55;7.22;;;5.25;;
42840;SDS011;28491;46.898;7.660;2023-02-27T14:09:08;6.53;;;4.80;;
42840;SDS011;28491;46.898;7.660;2023-02-27T14:11:25;9.57;;;5.22;;
42840;SDS011;28491;46.898;7.660;2023-02-27T14:19:02;8.40;;;5.03;;
42840;SDS011;28491;46.898;7.660;2023-02-27T14:27:03;6.38;;;5.00;;
42840;SDS011;28491;46.898;7.660;2023-02-27T14:29:42;8.68;;;5.90;;
42840;SDS011;28491;46.898;7.660;2023-02-27T14:32:13;7.95;;;6.10;;
42840;SDS011;28491;46.898;7.660;2023-02-27T14:34:44;7.40;;;5.82;;
42840;SDS011;28491;46.898;7.660;2023-02-27T14:37:12;11.25;;;6.10;;
42840;SDS011;28491;46.898;7.660;2023-02-27T14:39:41;6.88;;;5.35;;
42840;SDS011;28491;46.898;7.660;2023-02-27T14:45:15;7.93;;;5.25;;
42840;SDS011;28491;46.898;7.660;2023-02-27T14:47:44;8.23;;;6.00;;
42840;SDS011;28491;46.898;7.660;2023-02-27T14:53:05;8.23;;;5.15;;
42840;SDS011;28491;46.898;7.660;2023-02-27T14:55:32;6.85;;;5.07;;
42840;SDS011;28491;46.898;7.660;2023-02-27T14:58:14;9.30;;;6.15;;
42840;SDS011;28491;46.898;7.660;2023-02-27T15:00:45;8.88;;;6.40;;
42840;SDS011;28491;46.898;7.660;2023-02-27T15:03:21;8.63;;;5.90;;
42840;SDS011;28491;46.898;7.660;2023-02-27T15:05:51;8.20;;;5.20;;
42840;SDS011;28491;46.898;7.660;2023-02-27T15:08:19;8.00;;;6.20;;
42840;SDS011;28491;46.898;7.660;2023-02-27T15:11:16;8.57;;;5.78;;
42840;SDS011;28491;46.898;7.660;2023-02-27T15:13:44;9.35;;;5.85;;
42840;SDS011;28491;46.898;7.660;2023-02-27T15:16:17;8.38;;;5.78;;
42840;SDS011;28491;46.898;7.660;2023-02-27T15:19:10;10.93;;;6.15;;
42840;SDS011;28491;46.898;7.660;2023-02-27T15:21:51;6.88;;;5.25;;
42840;SDS011;28491;46.898;7.660;2023-02-27T15:24:22;6.60;;;5.07;;
42840;SDS011;28491;46.898;7.660;2023-02-27T15:26:54;7.22;;;5.88;;
42840;SDS011;28491;46.898;7.660;2023-02-27T15:29:23;7.07;;;5.55;;
42840;SDS011;28491;46.898;7.660;2023-02-27T15:31:52;7.28;;;4.90;;
42840;SDS011;28491;46.898;7.660;2023-02-27T15:34:18;11.65;;;6.88;;
42840;SDS011;28491;46.898;7.660;2023-02-27T15:36:46;9.60;;;6.80;;
42840;SDS011;28491;46.898;7.660;2023-02-27T15:39:21;7.80;;;6.07;;
42840;SDS011;28491;46.898;7.660;2023-02-27T15:41:50;7.80;;;5.75;;
42840;SDS011;28491;46.898;7.660;2023-02-27T15:44:19;10.70;;;7.10;;
42840;SDS011;28491;46.898;7.660;2023-02-27T15:46:53;7.95;;;6.00;;
42840;SDS011;28491;46.898;7.660;2023-02-27T15:49:21;7.40;;;5.55;;
42840;SDS011;28491;46.898;7.660;2023-02-27T15:51:53;9.68;;;7.20;;
42840;SDS011;28491;46.898;7.660;2023-02-27T15:54:23;10.23;;;7.07;;
42840;SDS011;28491;46.898;7.660;2023-02-27T15:56:49;10.18;;;7.20;;
42840;SDS011;28491;46.898;7.660;2023-02-27T15:59:16;8.13;;;6.00;;
42840;SDS011;28491;46.898;7.660;2023-02-27T16:01:43;11.88;;;6.95;;
42840;SDS011;28491;46.898;7.660;2023-02-27T16:04:15;13.55;;;8.52;;
42840;SDS011;28491;46.898;7.660;2023-02-27T16:06:47;10.18;;;7.38;;
42840;SDS011;28491;46.898;7.660;2023-02-27T16:09:23;30.27;;;17.52;;
42840;SDS011;28491;46.898;7.660;2023-02-27T16:12:38;15.70;;;10.25;;
42840;SDS011;28491;46.898;7.660;2023-02-27T16:14:47;21.00;;;13.13;;
42840;SDS011;28491;46.898;7.660;2023-02-27T16:17:24;27.45;;;15.82;;
42840;SDS011;28491;46.898;7.660;2023-02-27T16:19:54;30.05;;;17.25;;
42840;SDS011;28491;46.898;7.660;2023-02-27T16:22:21;14.57;;;9.82;;
42840;SDS011;28491;46.898;7.660;2023-02-27T16:24:47;10.70;;;7.40;;
42840;SDS011;28491;46.898;7.660;2023-02-27T16:27:15;9.63;;;6.85;;
42840;SDS011;28491;46.898;7.660;2023-02-27T16:29:52;14.57;;;10.18;;
42840;SDS011;28491;46.898;7.660;2023-02-27T16:32:29;10.00;;;7.32;;
42840;SDS011;28491;46.898;7.660;2023-02-27T16:35:40;7.85;;;6.60;;
42840;SDS011;28491;46.898;7.660;2023-02-27T16:37:48;9.93;;;6.55;;
42840;SDS011;28491;46.898;7.660;2023-02-27T16:40:20;10.20;;;7.22;;
42840;SDS011;28491;46.898;7.660;2023-02-27T16:42:47;11.40;;;6.55;;
42840;SDS011;28491;46.898;7.660;2023-02-27T16:45:23;9.60;;;7.15;;
42840;SDS011;28491;46.898;7.660;2023-02-27T16:47:51;10.55;;;7.10;;
42840;SDS011;28491;46.898;7.660;2023-02-27T16:50:20;10.27;;;6.95;;
42840;SDS011;28491;46.898;7.660;2023-02-27T16:52:52;12.98;;;9.13;;
42840;SDS011;28491;46.898;7.660;2023-02-27T16:55:17;7.80;;;6.57;;
42840;SDS011;28491;46.898;7.660;2023-02-27T16:57:43;11.65;;;6.95;;
42840;SDS011;28491;46.898;7.660;2023-02-27T17:00:10;8.25;;;6.25;;
42840;SDS011;28491;46.898;7.660;2023-02-27T17:02:40;11.30;;;6.55;;
42840;SDS011;28491;46.898;7.660;2023-02-27T17:05:06;11.02;;;7.05;;
42840;SDS011;28491;46.898;7.660;2023-02-27T17:07:32;8.38;;;6.15;;
42840;SDS011;28491;46.898;7.660;2023-02-27T17:09:58;9.65;;;7.15;;